sensor_id;sensor_type;location;lat;lon;timestamp;P1;durP1;ratioP1;P2;durP2;ratioP2
71513;SDS011;59335;46.652;21.272;2022-07-24T06:33:06;8.82;;;6.97;;
71513;SDS011;59335;46.652;21.272;2022-07-24T06:36:08;9.95;;;6.68;;
71513;SDS011;59335;46.652;21.272;2022-07-24T06:39:11;8.88;;;6.75;;
71513;SDS011;59335;46.652;21.272;2022-07-24T06:42:14;8.83;;;6.50;;
71513;SDS011;59335;46.652;21.272;2022-07-24T06:45:16;9.80;;;6.53;;
71513;SDS011;59335;46.652;21.272;2022-07-24T06:48:19;7.55;;;5.90;;
71513;SDS011;59335;46.652;21.272;2022-07-24T06:51:22;8.27;;;6.43;;
71513;SDS011;59335;46.652;21.272;2022-07-24T06:54:25;9.55;;;7.20;;
71513;SDS011;59335;46.652;21.272;2022-07-24T06:57:28;9.17;;;6.40;;
71513;SDS011;59335;46.652;21.272;2022-07-24T07:00:31;8.65;;;6.28;;
71513;SDS011;59335;46.652;21.272;2022-07-24T07:03:34;8.32;;;6.18;;
71513;SDS011;59335;46.652;21.272;2022-07-24T07:06:36;7.93;;;6.22;;
71513;SDS011;59335;46.652;21.272;2022-07-24T07:09:45;8.73;;;6.72;;
71513;SDS011;59335;46.652;21.272;2022-07-24T07:12:48;9.00;;;6.37;;
71513;SDS011;59335;46.652;21.272;2022-07-24T07:15:51;9.48;;;6.07;;
71513;SDS011;59335;46.652;21.272;2022-07-24T07:18:54;11.00;;;6.45;;
71513;SDS011;59335;46.652;21.272;2022-07-24T07:21:56;8.45;;;6.05;;
71513;SDS011;59335;46.652;21.272;2022-07-24T07:25:00;8.38;;;6.13;;
71513;SDS011;59335;46.652;21.272;2022-07-24T07:28:03;9.00;;;6.33;;
71513;SDS011;59335;46.652;21.272;2022-07-24T07:31:07;8.43;;;6.35;;
71513;SDS011;59335;46.652;21.272;2022-07-24T07:34:09;9.75;;;6.82;;
71513;SDS011;59335;46.652;21.272;2022-07-24T07:37:12;8.52;;;6.25;;
71513;SDS011;59335;46.652;21.272;2022-07-24T07:40:15;8.10;;;6.13;;
71513;SDS011;59335;46.652;21.272;2022-07-24T07:43:18;7.87;;;6.17;;
71513;SDS011;59335;46.652;21.272;2022-07-24T07:46:21;8.68;;;5.90;;
71513;SDS011;59335;46.652;21.272;2022-07-24T07:49:23;8.68;;;6.32;;
71513;SDS011;59335;46.652;21.272;2022-07-24T07:52:26;8.77;;;6.35;;
71513;SDS011;59335;46.652;21.272;2022-07-24T07:55:29;9.30;;;6.40;;
71513;SDS011;59335;46.652;21.272;2022-07-24T07:58:32;8.37;;;6.20;;
71513;SDS011;59335;46.652;21.272;2022-07-24T08:01:35;7.82;;;5.90;;
71513;SDS011;59335;46.652;21.272;2022-07-24T08:04:38;9.02;;;6.32;;
71513;SDS011;59335;46.652;21.272;2022-07-24T08:07:41;8.77;;;5.72;;
71513;SDS011;59335;46.652;21.272;2022-07-24T08:10:44;7.50;;;5.65;;
71513;SDS011;59335;46.652;21.272;2022-07-24T08:13:47;8.10;;;5.70;;
71513;SDS011;59335;46.652;21.272;2022-07-24T08:16:50;8.55;;;6.07;;
71513;SDS011;59335;46.652;21.272;2022-07-24T08:19:52;8.45;;;5.97;;
71513;SDS011;59335;46.652;21.272;2022-07-24T08:22:55;7.35;;;5.97;;
71513;SDS011;59335;46.652;21.272;2022-07-24T08:26:00;8.18;;;5.90;;
71513;SDS011;59335;46.652;21.272;2022-07-24T08:29:02;7.87;;;6.00;;
71513;SDS011;59335;46.652;21.272;2022-07-24T08:32:07;8.00;;;5.65;;
71513;SDS011;59335;46.652;21.272;2022-07-24T08:35:09;7.57;;;6.10;;
71513;SDS011;59335;46.652;21.272;2022-07-24T08:38:20;7.90;;;5.80;;
71513;SDS011;59335;46.652;21.272;2022-07-24T08:41:23;8.07;;;5.72;;
71513;SDS011;59335;46.652;21.272;2022-07-24T08:44:28;8.63;;;5.70;;
71513;SDS011;59335;46.652;21.272;2022-07-24T08:47:31;7.32;;;5.90;;
71513;SDS011;59335;46.652;21.272;2022-07-24T08:50:38;7.68;;;5.88;;
71513;SDS011;59335;46.652;21.272;2022-07-24T08:53:42;7.72;;;5.53;;
71513;SDS011;59335;46.652;21.272;2022-07-24T08:56:45;7.35;;;6.07;;
71513;SDS011;59335;46.652;21.272;2022-07-24T08:59:48;7.33;;;5.70;;
71513;SDS011;59335;46.652;21.272;2022-07-24T09:02:50;7.05;;;5.30;;
71513;SDS011;59335;46.652;21.272;2022-07-24T09:05:57;7.65;;;5.50;;
71513;SDS011;59335;46.652;21.272;2022-07-24T09:09:02;8.10;;;5.60;;
71513;SDS011;59335;46.652;21.272;2022-07-24T09:12:11;7.05;;;5.47;;
71513;SDS011;59335;46.652;21.272;2022-07-24T09:15:19;7.47;;;5.33;;
71513;SDS011;59335;46.652;21.272;2022-07-24T09:18:26;7.78;;;5.80;;
71513;SDS011;59335;46.652;21.272;2022-07-24T09:21:33;8.25;;;5.68;;
71513;SDS011;59335;46.652;21.272;2022-07-24T09:24:37;7.18;;;5.35;;
71513;SDS011;59335;46.652;21.272;2022-07-24T09:27:50;8.43;;;5.70;;
71513;SDS011;59335;46.652;21.272;2022-07-24T09:31:00;8.63;;;6.03;;
71513;SDS011;59335;46.652;21.272;2022-07-24T09:34:09;7.05;;;5.60;;
71513;SDS011;59335;46.652;21.272;2022-07-24T09:37:12;7.55;;;5.80;;
71513;SDS011;59335;46.652;21.272;2022-07-24T09:40:20;8.18;;;6.13;;
71513;SDS011;59335;46.652;21.272;2022-07-24T09:43:25;7.35;;;5.32;;
71513;SDS011;59335;46.652;21.272;2022-07-24T09:46:37;7.63;;;5.13;;
71513;SDS011;59335;46.652;21.272;2022-07-24T09:49:42;8.35;;;5.45;;
71513;SDS011;59335;46.652;21.272;2022-07-24T09:52:45;7.57;;;5.45;;
71513;SDS011;59335;46.652;21.272;2022-07-24T09:59:09;7.25;;;5.50;;
71513;SDS011;59335;46.652;21.272;2022-07-24T10:02:15;7.90;;;5.43;;
71513;SDS011;59335;46.652;21.272;2022-07-24T10:05:19;8.23;;;5.88;;
71513;SDS011;59335;46.652;21.272;2022-07-24T10:08:25;7.47;;;5.95;;
71513;SDS011;59335;46.652;21.272;2022-07-24T10:11:28;7.13;;;5.45;;
71513;SDS011;59335;46.652;21.272;2022-07-24T10:14:38;7.63;;;5.18;;
71513;SDS011;59335;46.652;21.272;2022-07-24T10:20:56;7.35;;;5.35;;
71513;SDS011;59335;46.652;21.272;2022-07-24T10:27:33;7.32;;;5.60;;
71513;SDS011;59335;46.652;21.272;2022-07-24T10:30:35;6.75;;;5.20;;
71513;SDS011;59335;46.652;21.272;2022-07-24T10:33:38;8.07;;;4.97;;
71513;SDS011;59335;46.652;21.272;2022-07-24T10:36:44;6.65;;;4.93;;
71513;SDS011;59335;46.652;21.272;2022-07-24T10:46:11;7.15;;;5.68;;
71513;SDS011;59335;46.652;21.272;2022-07-24T10:49:32;8.03;;;5.50;;
71513;SDS011;59335;46.652;21.272;2022-07-24T10:52:45;7.55;;;5.30;;
71513;SDS011;59335;46.652;21.272;2022-07-24T10:55:50;6.90;;;5.47;;
71513;SDS011;59335;46.652;21.272;2022-07-24T10:58:55;7.38;;;5.10;;
71513;SDS011;59335;46.652;21.272;2022-07-24T11:01:58;7.45;;;5.18;;
71513;SDS011;59335;46.652;21.272;2022-07-24T11:15:00;7.18;;;4.65;;
71513;SDS011;59335;46.652;21.272;2022-07-24T11:18:39;6.85;;;5.32;;
71513;SDS011;59335;46.652;21.272;2022-07-24T11:21:52;7.87;;;5.53;;
71513;SDS011;59335;46.652;21.272;2022-07-24T11:25:05;8.70;;;5.43;;
71513;SDS011;59335;46.652;21.272;2022-07-24T11:28:12;8.30;;;5.55;;
71513;SDS011;59335;46.652;21.272;2022-07-24T11:31:16;7.53;;;5.75;;
71513;SDS011;59335;46.652;21.272;2022-07-24T11:34:19;7.47;;;5.32;;
71513;SDS011;59335;46.652;21.272;2022-07-24T11:37:22;7.30;;;5.40;;
71513;SDS011;59335;46.652;21.272;2022-07-24T11:40:37;6.82;;;5.20;;
71513;SDS011;59335;46.652;21.272;2022-07-24T11:44:01;7.40;;;5.10;;
71513;SDS011;59335;46.652;21.272;2022-07-24T11:47:10;7.53;;;5.57;;
71513;SDS011;59335;46.652;21.272;2022-07-24T11:50:19;6.70;;;5.05;;
71513;SDS011;59335;46.652;21.272;2022-07-24T11:53:22;7.10;;;5.67;;
71513;SDS011;59335;46.652;21.272;2022-07-24T11:56:30;6.97;;;5.28;;
71513;SDS011;59335;46.652;21.272;2022-07-24T11:59:33;7.22;;;5.63;;
71513;SDS011;59335;46.652;21.272;2022-07-24T12:02:37;7.72;;;5.63;;
71513;SDS011;59335;46.652;21.272;2022-07-24T12:05:44;8.50;;;5.70;;
71513;SDS011;59335;46.652;21.272;2022-07-24T12:08:48;7.50;;;5.57;;
71513;SDS011;59335;46.652;21.272;2022-07-24T12:11:51;7.80;;;5.38;;
71513;SDS011;59335;46.652;21.272;2022-07-24T12:18:19;7.57;;;5.85;;
71513;SDS011;59335;46.652;21.272;2022-07-24T12:21:29;7.35;;;5.57;;
71513;SDS011;59335;46.652;21.272;2022-07-24T12:24:32;7.20;;;5.43;;
71513;SDS011;59335;46.652;21.272;2022-07-24T12:27:36;8.15;;;5.78;;
71513;SDS011;59335;46.652;21.272;2022-07-24T12:30:45;7.43;;;5.30;;
71513;SDS011;59335;46.652;21.272;2022-07-24T12:33:53;6.50;;;5.18;;
71513;SDS011;59335;46.652;21.272;2022-07-24T12:36:57;7.35;;;5.63;;
71513;SDS011;59335;46.652;21.272;2022-07-24T12:39:59;7.40;;;5.60;;
71513;SDS011;59335;46.652;21.272;2022-07-24T12:43:09;7.60;;;5.63;;
71513;SDS011;59335;46.652;21.272;2022-07-24T12:46:15;7.35;;;5.28;;
71513;SDS011;59335;46.652;21.272;2022-07-24T12:49:18;7.70;;;6.00;;
71513;SDS011;59335;46.652;21.272;2022-07-24T12:52:23;7.88;;;6.10;;
71513;SDS011;59335;46.652;21.272;2022-07-24T12:55:27;7.50;;;5.97;;
71513;SDS011;59335;46.652;21.272;2022-07-24T12:58:30;7.35;;;6.13;;
71513;SDS011;59335;46.652;21.272;2022-07-24T13:01:50;7.32;;;5.90;;
71513;SDS011;59335;46.652;21.272;2022-07-24T13:04:55;7.90;;;6.00;;
71513;SDS011;59335;46.652;21.272;2022-07-24T13:08:01;8.02;;;6.18;;
71513;SDS011;59335;46.652;21.272;2022-07-24T13:11:03;7.57;;;5.80;;
71513;SDS011;59335;46.652;21.272;2022-07-24T13:14:07;8.35;;;6.03;;
71513;SDS011;59335;46.652;21.272;2022-07-24T13:17:13;8.63;;;6.72;;
71513;SDS011;59335;46.652;21.272;2022-07-24T13:20:17;8.48;;;6.38;;
71513;SDS011;59335;46.652;21.272;2022-07-24T13:23:19;7.82;;;6.22;;
71513;SDS011;59335;46.652;21.272;2022-07-24T13:26:22;8.23;;;5.90;;
71513;SDS011;59335;46.652;21.272;2022-07-24T13:29:26;7.72;;;6.05;;
71513;SDS011;59335;46.652;21.272;2022-07-24T13:32:30;8.50;;;6.55;;
71513;SDS011;59335;46.652;21.272;2022-07-24T13:35:32;8.10;;;6.78;;
71513;SDS011;59335;46.652;21.272;2022-07-24T13:38:37;8.23;;;6.70;;
71513;SDS011;59335;46.652;21.272;2022-07-24T13:41:40;9.23;;;6.97;;
71513;SDS011;59335;46.652;21.272;2022-07-24T13:44:43;7.85;;;6.15;;
71513;SDS011;59335;46.652;21.272;2022-07-24T13:47:46;8.25;;;6.78;;
71513;SDS011;59335;46.652;21.272;2022-07-24T13:50:48;8.90;;;6.60;;
71513;SDS011;59335;46.652;21.272;2022-07-24T13:53:52;8.45;;;6.57;;
71513;SDS011;59335;46.652;21.272;2022-07-24T13:56:55;9.10;;;7.23;;
71513;SDS011;59335;46.652;21.272;2022-07-24T13:59:59;8.50;;;6.78;;
71513;SDS011;59335;46.652;21.272;2022-07-24T14:03:02;8.75;;;7.45;;
71513;SDS011;59335;46.652;21.272;2022-07-24T14:06:25;9.20;;;6.97;;
71513;SDS011;59335;46.652;21.272;2022-07-24T14:09:28;10.15;;;7.47;;
71513;SDS011;59335;46.652;21.272;2022-07-24T14:12:31;9.57;;;7.23;;
71513;SDS011;59335;46.652;21.272;2022-07-24T14:15:34;8.50;;;7.07;;
71513;SDS011;59335;46.652;21.272;2022-07-24T14:18:38;9.57;;;7.53;;
71513;SDS011;59335;46.652;21.272;2022-07-24T14:21:41;9.20;;;7.50;;
71513;SDS011;59335;46.652;21.272;2022-07-24T14:24:48;9.73;;;7.35;;
71513;SDS011;59335;46.652;21.272;2022-07-24T14:27:51;9.53;;;7.40;;
71513;SDS011;59335;46.652;21.272;2022-07-24T14:30:54;9.05;;;7.70;;
71513;SDS011;59335;46.652;21.272;2022-07-24T14:33:57;10.40;;;8.30;;
71513;SDS011;59335;46.652;21.272;2022-07-24T14:37:00;10.13;;;7.93;;
71513;SDS011;59335;46.652;21.272;2022-07-24T14:40:04;9.85;;;7.80;;
71513;SDS011;59335;46.652;21.272;2022-07-24T14:43:09;9.33;;;7.80;;
71513;SDS011;59335;46.652;21.272;2022-07-24T14:46:11;9.98;;;7.53;;
71513;SDS011;59335;46.652;21.272;2022-07-24T14:49:14;10.10;;;7.90;;
71513;SDS011;59335;46.652;21.272;2022-07-24T14:52:17;10.43;;;7.60;;
71513;SDS011;59335;46.652;21.272;2022-07-24T14:55:21;10.15;;;7.82;;
71513;SDS011;59335;46.652;21.272;2022-07-24T14:58:23;10.70;;;7.63;;
71513;SDS011;59335;46.652;21.272;2022-07-24T15:01:26;9.52;;;7.68;;
71513;SDS011;59335;46.652;21.272;2022-07-24T15:04:29;10.35;;;7.85;;
71513;SDS011;59335;46.652;21.272;2022-07-24T15:07:32;10.07;;;7.70;;
71513;SDS011;59335;46.652;21.272;2022-07-24T15:10:35;9.45;;;7.50;;
71513;SDS011;59335;46.652;21.272;2022-07-24T15:13:37;10.20;;;7.33;;
71513;SDS011;59335;46.652;21.272;2022-07-24T15:16:42;12.07;;;8.00;;
71513;SDS011;59335;46.652;21.272;2022-07-24T15:19:45;9.30;;;8.10;;
71513;SDS011;59335;46.652;21.272;2022-07-24T15:22:48;9.02;;;7.60;;
71513;SDS011;59335;46.652;21.272;2022-07-24T15:25:50;9.30;;;7.82;;
71513;SDS011;59335;46.652;21.272;2022-07-24T15:28:54;10.60;;;8.33;;
71513;SDS011;59335;46.652;21.272;2022-07-24T15:31:57;9.48;;;8.02;;
71513;SDS011;59335;46.652;21.272;2022-07-24T15:35:01;9.82;;;7.68;;
71513;SDS011;59335;46.652;21.272;2022-07-24T15:38:05;9.45;;;7.90;;
71513;SDS011;59335;46.652;21.272;2022-07-24T15:41:08;8.93;;;7.53;;
71513;SDS011;59335;46.652;21.272;2022-07-24T15:44:10;10.47;;;7.93;;
71513;SDS011;59335;46.652;21.272;2022-07-24T15:47:13;9.40;;;7.53;;
71513;SDS011;59335;46.652;21.272;2022-07-24T15:50:17;9.70;;;7.90;;
71513;SDS011;59335;46.652;21.272;2022-07-24T15:53:20;9.82;;;7.85;;
71513;SDS011;59335;46.652;21.272;2022-07-24T15:56:23;10.25;;;7.95;;
71513;SDS011;59335;46.652;21.272;2022-07-24T15:59:26;11.57;;;7.97;;
71513;SDS011;59335;46.652;21.272;2022-07-24T16:02:29;9.07;;;7.60;;
71513;SDS011;59335;46.652;21.272;2022-07-24T16:05:32;8.20;;;6.97;;
71513;SDS011;59335;46.652;21.272;2022-07-24T16:08:35;8.45;;;7.00;;
71513;SDS011;59335;46.652;21.272;2022-07-24T16:11:38;10.30;;;7.60;;
71513;SDS011;59335;46.652;21.272;2022-07-24T16:14:40;9.67;;;7.57;;
71513;SDS011;59335;46.652;21.272;2022-07-24T16:17:43;9.70;;;7.90;;
71513;SDS011;59335;46.652;21.272;2022-07-24T16:20:46;10.20;;;7.50;;
71513;SDS011;59335;46.652;21.272;2022-07-24T16:23:49;8.98;;;7.53;;
71513;SDS011;59335;46.652;21.272;2022-07-24T16:26:56;9.23;;;7.50;;
71513;SDS011;59335;46.652;21.272;2022-07-24T16:29:59;9.50;;;8.10;;
71513;SDS011;59335;46.652;21.272;2022-07-24T16:33:01;10.13;;;8.00;;
71513;SDS011;59335;46.652;21.272;2022-07-24T16:36:24;9.75;;;7.88;;
71513;SDS011;59335;46.652;21.272;2022-07-24T16:39:27;10.90;;;7.47;;
71513;SDS011;59335;46.652;21.272;2022-07-24T16:42:43;10.25;;;8.35;;
71513;SDS011;59335;46.652;21.272;2022-07-24T16:45:47;9.40;;;7.70;;
71513;SDS011;59335;46.652;21.272;2022-07-24T16:48:50;9.32;;;7.68;;
71513;SDS011;59335;46.652;21.272;2022-07-24T16:51:53;9.20;;;7.40;;
71513;SDS011;59335;46.652;21.272;2022-07-24T16:54:56;9.10;;;7.57;;
71513;SDS011;59335;46.652;21.272;2022-07-24T16:57:58;9.60;;;7.85;;
71513;SDS011;59335;46.652;21.272;2022-07-24T17:01:02;9.00;;;7.40;;
71513;SDS011;59335;46.652;21.272;2022-07-24T17:04:05;9.85;;;7.90;;
71513;SDS011;59335;46.652;21.272;2022-07-24T17:07:09;8.80;;;7.82;;
71513;SDS011;59335;46.652;21.272;2022-07-24T17:10:11;9.55;;;7.65;;
71513;SDS011;59335;46.652;21.272;2022-07-24T17:13:14;9.18;;;7.65;;
71513;SDS011;59335;46.652;21.272;2022-07-24T17:16:18;8.80;;;7.07;;
71513;SDS011;59335;46.652;21.272;2022-07-24T17:19:22;10.27;;;7.05;;
71513;SDS011;59335;46.652;21.272;2022-07-24T17:22:25;9.75;;;8.15;;
71513;SDS011;59335;46.652;21.272;2022-07-24T17:25:29;9.68;;;7.97;;
71513;SDS011;59335;46.652;21.272;2022-07-24T17:28:32;9.40;;;7.30;;
71513;SDS011;59335;46.652;21.272;2022-07-24T17:31:35;9.20;;;7.77;;
71513;SDS011;59335;46.652;21.272;2022-07-24T17:34:38;8.55;;;7.30;;
71513;SDS011;59335;46.652;21.272;2022-07-24T17:37:40;9.13;;;6.82;;
71513;SDS011;59335;46.652;21.272;2022-07-24T17:40:43;9.52;;;7.22;;
71513;SDS011;59335;46.652;21.272;2022-07-24T17:43:46;9.05;;;7.38;;
71513;SDS011;59335;46.652;21.272;2022-07-24T17:46:50;9.27;;;7.20;;
71513;SDS011;59335;46.652;21.272;2022-07-24T17:49:53;8.93;;;7.22;;
71513;SDS011;59335;46.652;21.272;2022-07-24T17:52:55;9.20;;;7.50;;
71513;SDS011;59335;46.652;21.272;2022-07-24T17:55:58;9.38;;;7.65;;
71513;SDS011;59335;46.652;21.272;2022-07-24T17:59:01;10.43;;;7.60;;
71513;SDS011;59335;46.652;21.272;2022-07-24T18:02:03;9.77;;;7.63;;
71513;SDS011;59335;46.652;21.272;2022-07-24T18:05:06;9.88;;;7.65;;
71513;SDS011;59335;46.652;21.272;2022-07-24T18:08:10;8.57;;;7.22;;
71513;SDS011;59335;46.652;21.272;2022-07-24T18:11:12;9.35;;;7.40;;
71513;SDS011;59335;46.652;21.272;2022-07-24T18:14:15;9.27;;;7.75;;
71513;SDS011;59335;46.652;21.272;2022-07-24T18:17:18;9.80;;;7.43;;
71513;SDS011;59335;46.652;21.272;2022-07-24T18:20:21;9.35;;;7.50;;
71513;SDS011;59335;46.652;21.272;2022-07-24T18:23:25;9.85;;;7.70;;
71513;SDS011;59335;46.652;21.272;2022-07-24T18:26:27;9.05;;;7.22;;
71513;SDS011;59335;46.652;21.272;2022-07-24T18:29:30;9.40;;;7.70;;
71513;SDS011;59335;46.652;21.272;2022-07-24T18:32:33;9.13;;;7.70;;
71513;SDS011;59335;46.652;21.272;2022-07-24T18:35:36;9.95;;;7.65;;
71513;SDS011;59335;46.652;21.272;2022-07-24T18:38:39;11.00;;;7.80;;
71513;SDS011;59335;46.652;21.272;2022-07-24T18:41:47;9.27;;;7.60;;
71513;SDS011;59335;46.652;21.272;2022-07-24T18:44:51;9.80;;;7.72;;
71513;SDS011;59335;46.652;21.272;2022-07-24T18:47:54;10.77;;;7.53;;
71513;SDS011;59335;46.652;21.272;2022-07-24T18:50:57;9.60;;;7.90;;
71513;SDS011;59335;46.652;21.272;2022-07-24T18:53:59;10.88;;;8.05;;
71513;SDS011;59335;46.652;21.272;2022-07-24T18:57:02;10.90;;;7.97;;
71513;SDS011;59335;46.652;21.272;2022-07-24T19:00:05;11.32;;;8.63;;
71513;SDS011;59335;46.652;21.272;2022-07-24T19:03:12;9.27;;;7.67;;
71513;SDS011;59335;46.652;21.272;2022-07-24T19:06:16;11.27;;;7.72;;
71513;SDS011;59335;46.652;21.272;2022-07-24T19:09:19;10.82;;;7.60;;
71513;SDS011;59335;46.652;21.272;2022-07-24T19:12:22;10.18;;;7.68;;
71513;SDS011;59335;46.652;21.272;2022-07-24T19:15:24;10.63;;;7.97;;
71513;SDS011;59335;46.652;21.272;2022-07-24T19:18:27;9.87;;;7.80;;
71513;SDS011;59335;46.652;21.272;2022-07-24T19:21:30;10.07;;;8.00;;
71513;SDS011;59335;46.652;21.272;2022-07-24T19:24:33;10.60;;;7.93;;
71513;SDS011;59335;46.652;21.272;2022-07-24T19:27:56;11.75;;;8.38;;
71513;SDS011;59335;46.652;21.272;2022-07-24T19:30:58;10.15;;;8.00;;
71513;SDS011;59335;46.652;21.272;2022-07-24T19:34:01;10.53;;;7.63;;
71513;SDS011;59335;46.652;21.272;2022-07-24T19:37:05;10.60;;;7.90;;
71513;SDS011;59335;46.652;21.272;2022-07-24T19:40:08;11.27;;;8.00;;
71513;SDS011;59335;46.652;21.272;2022-07-24T19:43:11;10.23;;;8.07;;
71513;SDS011;59335;46.652;21.272;2022-07-24T19:46:22;9.27;;;7.88;;
71513;SDS011;59335;46.652;21.272;2022-07-24T19:49:25;10.40;;;8.00;;
71513;SDS011;59335;46.652;21.272;2022-07-24T19:52:28;10.65;;;7.63;;
71513;SDS011;59335;46.652;21.272;2022-07-24T19:55:32;10.70;;;8.00;;
71513;SDS011;59335;46.652;21.272;2022-07-24T19:58:35;9.52;;;7.38;;
71513;SDS011;59335;46.652;21.272;2022-07-24T20:01:37;11.10;;;8.43;;
71513;SDS011;59335;46.652;21.272;2022-07-24T20:04:40;10.60;;;8.17;;
71513;SDS011;59335;46.652;21.272;2022-07-24T20:07:44;10.52;;;8.18;;
71513;SDS011;59335;46.652;21.272;2022-07-24T20:10:46;10.77;;;8.27;;
71513;SDS011;59335;46.652;21.272;2022-07-24T20:13:49;10.70;;;7.70;;
71513;SDS011;59335;46.652;21.272;2022-07-24T20:16:52;11.07;;;7.75;;
71513;SDS011;59335;46.652;21.272;2022-07-24T20:19:55;9.37;;;7.43;;
71513;SDS011;59335;46.652;21.272;2022-07-24T20:22:57;10.00;;;7.53;;
71513;SDS011;59335;46.652;21.272;2022-07-24T20:26:00;9.85;;;7.88;;
71513;SDS011;59335;46.652;21.272;2022-07-24T20:29:04;11.27;;;8.18;;
71513;SDS011;59335;46.652;21.272;2022-07-24T20:32:06;10.35;;;8.13;;
71513;SDS011;59335;46.652;21.272;2022-07-24T20:35:09;10.23;;;7.80;;
71513;SDS011;59335;46.652;21.272;2022-07-24T20:38:12;10.18;;;7.22;;
71513;SDS011;59335;46.652;21.272;2022-07-24T20:41:14;10.18;;;8.10;;
71513;SDS011;59335;46.652;21.272;2022-07-24T20:44:17;11.93;;;7.72;;
71513;SDS011;59335;46.652;21.272;2022-07-24T20:47:20;10.52;;;7.78;;
71513;SDS011;59335;46.652;21.272;2022-07-24T20:50:22;9.13;;;7.37;;
71513;SDS011;59335;46.652;21.272;2022-07-24T20:53:25;10.27;;;7.30;;
71513;SDS011;59335;46.652;21.272;2022-07-24T20:56:27;14.63;;;7.72;;
71513;SDS011;59335;46.652;21.272;2022-07-24T20:59:30;11.85;;;7.55;;
71513;SDS011;59335;46.652;21.272;2022-07-24T21:02:34;11.30;;;7.60;;
71513;SDS011;59335;46.652;21.272;2022-07-24T21:05:37;9.47;;;7.07;;
71513;SDS011;59335;46.652;21.272;2022-07-24T21:08:39;8.73;;;7.00;;
71513;SDS011;59335;46.652;21.272;2022-07-24T21:11:58;9.50;;;7.13;;
71513;SDS011;59335;46.652;21.272;2022-07-24T21:15:00;8.88;;;6.75;;
71513;SDS011;59335;46.652;21.272;2022-07-24T21:18:05;8.35;;;6.93;;
71513;SDS011;59335;46.652;21.272;2022-07-24T21:21:08;8.40;;;7.03;;
71513;SDS011;59335;46.652;21.272;2022-07-24T21:24:12;8.68;;;6.90;;
71513;SDS011;59335;46.652;21.272;2022-07-24T21:27:15;9.55;;;7.15;;
71513;SDS011;59335;46.652;21.272;2022-07-24T21:30:18;10.82;;;7.00;;
71513;SDS011;59335;46.652;21.272;2022-07-24T21:33:20;7.65;;;6.40;;
71513;SDS011;59335;46.652;21.272;2022-07-24T21:36:23;9.10;;;6.63;;
71513;SDS011;59335;46.652;21.272;2022-07-24T21:39:26;10.15;;;6.97;;
71513;SDS011;59335;46.652;21.272;2022-07-24T21:42:28;9.60;;;6.75;;
71513;SDS011;59335;46.652;21.272;2022-07-24T21:45:31;9.25;;;6.45;;
71513;SDS011;59335;46.652;21.272;2022-07-24T21:48:33;9.40;;;6.72;;
71513;SDS011;59335;46.652;21.272;2022-07-24T21:51:36;8.17;;;6.03;;
71513;SDS011;59335;46.652;21.272;2022-07-24T21:54:39;8.30;;;5.80;;
71513;SDS011;59335;46.652;21.272;2022-07-24T21:57:42;9.50;;;6.95;;
71513;SDS011;59335;46.652;21.272;2022-07-24T22:00:44;9.45;;;6.15;;
71513;SDS011;59335;46.652;21.272;2022-07-24T22:03:49;8.23;;;5.90;;
71513;SDS011;59335;46.652;21.272;2022-07-24T22:06:55;8.30;;;6.10;;
71513;SDS011;59335;46.652;21.272;2022-07-24T22:10:00;8.88;;;5.88;;
71513;SDS011;59335;46.652;21.272;2022-07-24T22:13:05;8.45;;;6.20;;
71513;SDS011;59335;46.652;21.272;2022-07-24T22:16:08;7.57;;;5.68;;
71513;SDS011;59335;46.652;21.272;2022-07-24T22:19:11;9.88;;;5.22;;
71513;SDS011;59335;46.652;21.272;2022-07-24T22:22:14;7.20;;;5.13;;
71513;SDS011;59335;46.652;21.272;2022-07-24T22:25:16;7.00;;;5.13;;
71513;SDS011;59335;46.652;21.272;2022-07-24T22:28:19;7.78;;;5.03;;
71513;SDS011;59335;46.652;21.272;2022-07-24T22:31:27;8.32;;;5.38;;
71513;SDS011;59335;46.652;21.272;2022-07-24T22:34:30;6.25;;;4.63;;
71513;SDS011;59335;46.652;21.272;2022-07-24T22:37:36;6.67;;;4.80;;
71513;SDS011;59335;46.652;21.272;2022-07-24T22:40:41;7.03;;;4.82;;
71513;SDS011;59335;46.652;21.272;2022-07-24T22:43:44;7.07;;;5.18;;
71513;SDS011;59335;46.652;21.272;2022-07-24T22:46:47;7.85;;;5.00;;
71513;SDS011;59335;46.652;21.272;2022-07-24T22:49:52;6.50;;;4.30;;
71513;SDS011;59335;46.652;21.272;2022-07-24T22:52:55;6.40;;;4.30;;
71513;SDS011;59335;46.652;21.272;2022-07-24T22:56:00;6.95;;;4.40;;
71513;SDS011;59335;46.652;21.272;2022-07-24T22:59:03;6.53;;;3.97;;
71513;SDS011;59335;46.652;21.272;2022-07-24T23:02:07;8.18;;;4.82;;
71513;SDS011;59335;46.652;21.272;2022-07-24T23:05:11;6.22;;;4.30;;
71513;SDS011;59335;46.652;21.272;2022-07-24T23:08:14;7.03;;;4.27;;
71513;SDS011;59335;46.652;21.272;2022-07-24T23:11:17;6.57;;;4.20;;
71513;SDS011;59335;46.652;21.272;2022-07-24T23:14:20;6.85;;;3.85;;
71513;SDS011;59335;46.652;21.272;2022-07-24T23:17:22;6.05;;;3.78;;
71513;SDS011;59335;46.652;21.272;2022-07-24T23:20:34;5.97;;;3.90;;
71513;SDS011;59335;46.652;21.272;2022-07-24T23:23:37;6.10;;;4.00;;
71513;SDS011;59335;46.652;21.272;2022-07-24T23:26:39;6.15;;;3.58;;
71513;SDS011;59335;46.652;21.272;2022-07-24T23:29:44;6.75;;;3.63;;
71513;SDS011;59335;46.652;21.272;2022-07-24T23:32:46;6.22;;;3.80;;
71513;SDS011;59335;46.652;21.272;2022-07-24T23:35:49;5.40;;;3.55;;
71513;SDS011;59335;46.652;21.272;2022-07-24T23:38:52;7.00;;;3.30;;
71513;SDS011;59335;46.652;21.272;2022-07-24T23:41:55;6.53;;;3.50;;
71513;SDS011;59335;46.652;21.272;2022-07-24T23:44:58;5.28;;;3.30;;
71513;SDS011;59335;46.652;21.272;2022-07-24T23:48:01;6.57;;;3.42;;
71513;SDS011;59335;46.652;21.272;2022-07-24T23:51:11;6.93;;;3.80;;
71513;SDS011;59335;46.652;21.272;2022-07-24T23:54:13;5.27;;;3.33;;
71513;SDS011;59335;46.652;21.272;2022-07-24T23:57:16;5.50;;;3.20;;
